KMYR/MYR METAR and TAF weather

Enter ICAO airport designator
Station Type Date Time Source
KMYR METAR 2020/03/29 13:56 UTC NOAA

KMYR 291356Z 24011G18KT 10SM CLR 24/19 A3008 RMK AO2 SLP186 T02440194


Station Type Date Time Source
KMYR Decoded METAR 2020/03/29 13:56 UTC NOAA

Myrtle Beach Air Force Base, SC, United States (KMYR) 33-41N 078-56W 8M
Mar 29, 2020 - 09:56 AM EDT / 2020.03.29 1356 UTC
Wind: from the WSW (240 degrees) at 13 MPH (11 KT) gusting to 21 MPH (18 KT):0
Visibility: 10 mile(s):0
Sky conditions: clear
Temperature: 75.9 F (24.4 C)
Dew Point: 66.9 F (19.4 C)
Relative Humidity: 73%
Pressure (altimeter): 30.08 in. Hg (1018 hPa)
ob: KMYR 291356Z 24011G18KT 10SM CLR 24/19 A3008 RMK AO2 SLP186 T02440194
cycle: 14

Station Type Date Time Source
KMYR TAF 2020/03/29 12:22 UTC NOAA

TAF KMYR 291120Z 2912/3012 22009KT P6SM SCT045
FM291600 23013G20KT P6SM SCT250
FM292300 21012KT P6SM SCT200
FM300500 25007KT P6SM BKN100

Example: see airport list